sensor_id;sensor_type;location;lat;lon;timestamp;pressure;altitude;pressure_sealevel;temperature;humidity
46506;BME280;32220;49.808;9.968;2023-04-21T00:01:56;98523.44;;;9.98;87.86
46506;BME280;32220;49.808;9.968;2023-04-21T00:04:25;98519.06;;;9.97;87.96
46506;BME280;32220;49.808;9.968;2023-04-21T00:06:53;98494.66;;;9.80;87.93
46506;BME280;32220;49.808;9.968;2023-04-21T00:09:21;98523.53;;;9.97;88.32
46506;BME280;32220;49.808;9.968;2023-04-21T00:11:49;98525.50;;;9.93;89.13
46506;BME280;32220;49.808;9.968;2023-04-21T00:14:16;98532.59;;;9.93;89.04
46506;BME280;32220;49.808;9.968;2023-04-21T00:16:45;98532.41;;;9.96;88.39
46506;BME280;32220;49.808;9.968;2023-04-21T00:19:17;98527.72;;;9.87;88.38
46506;BME280;32220;49.808;9.968;2023-04-21T00:21:45;98540.72;;;9.90;88.13
46506;BME280;32220;49.808;9.968;2023-04-21T00:24:12;98549.31;;;9.93;88.16
46506;BME280;32220;49.808;9.968;2023-04-21T00:26:40;98546.56;;;9.95;87.83
46506;BME280;32220;49.808;9.968;2023-04-21T00:29:07;98538.63;;;9.95;88.04
46506;BME280;32220;49.808;9.968;2023-04-21T00:31:35;98528.56;;;9.87;87.88
46506;BME280;32220;49.808;9.968;2023-04-21T00:34:05;98542.97;;;9.96;87.66
46506;BME280;32220;49.808;9.968;2023-04-21T00:36:33;98539.59;;;9.94;87.64
46506;BME280;32220;49.808;9.968;2023-04-21T00:39:01;98529.41;;;9.88;87.16
46506;BME280;32220;49.808;9.968;2023-04-21T00:41:29;98552.53;;;9.98;86.83
46506;BME280;32220;49.808;9.968;2023-04-21T00:44:01;98549.78;;;10.00;86.32
46506;BME280;32220;49.808;9.968;2023-04-21T00:46:31;98557.50;;;10.03;86.32
46506;BME280;32220;49.808;9.968;2023-04-21T00:49:01;98564.28;;;10.07;86.03
46506;BME280;32220;49.808;9.968;2023-04-21T00:51:31;98555.59;;;10.05;85.72
46506;BME280;32220;49.808;9.968;2023-04-21T00:54:01;98559.28;;;10.02;85.55
46506;BME280;32220;49.808;9.968;2023-04-21T00:56:32;98577.25;;;10.12;85.45
46506;BME280;32220;49.808;9.968;2023-04-21T00:59:01;98570.78;;;10.16;85.26
46506;BME280;32220;49.808;9.968;2023-04-21T01:01:29;98569.81;;;10.17;85.05
46506;BME280;32220;49.808;9.968;2023-04-21T01:03:59;98565.97;;;10.22;85.01
46506;BME280;32220;49.808;9.968;2023-04-21T01:06:30;98566.72;;;10.24;84.79
46506;BME280;32220;49.808;9.968;2023-04-21T01:08:59;98567.44;;;10.26;84.61
46506;BME280;32220;49.808;9.968;2023-04-21T01:11:29;98557.09;;;10.23;84.46
46506;BME280;32220;49.808;9.968;2023-04-21T01:13:57;98555.19;;;10.25;84.22
46506;BME280;32220;49.808;9.968;2023-04-21T01:16:25;98566.22;;;10.32;84.00
46506;BME280;32220;49.808;9.968;2023-04-21T01:18:53;98560.81;;;10.33;83.89
46506;BME280;32220;49.808;9.968;2023-04-21T01:21:21;98556.88;;;10.26;83.98
46506;BME280;32220;49.808;9.968;2023-04-21T01:23:50;98557.00;;;10.25;83.86
46506;BME280;32220;49.808;9.968;2023-04-21T01:26:18;98543.69;;;10.12;84.25
46506;BME280;32220;49.808;9.968;2023-04-21T01:28:46;98564.28;;;10.21;83.93
46506;BME280;32220;49.808;9.968;2023-04-21T01:31:14;98567.03;;;10.20;84.10
46506;BME280;32220;49.808;9.968;2023-04-21T01:33:43;98573.16;;;10.20;84.45
46506;BME280;32220;49.808;9.968;2023-04-21T01:36:11;98580.16;;;10.21;84.05
46506;BME280;32220;49.808;9.968;2023-04-21T01:38:39;98562.56;;;10.20;84.06
46506;BME280;32220;49.808;9.968;2023-04-21T01:41:09;98566.16;;;10.19;84.26
46506;BME280;32220;49.808;9.968;2023-04-21T01:43:37;98544.25;;;10.03;83.97
46506;BME280;32220;49.808;9.968;2023-04-21T01:46:05;98545.78;;;10.07;83.53
46506;BME280;32220;49.808;9.968;2023-04-21T01:48:35;98567.19;;;10.17;83.79
46506;BME280;32220;49.808;9.968;2023-04-21T01:51:03;98575.22;;;10.15;83.69
46506;BME280;32220;49.808;9.968;2023-04-21T01:53:30;98568.97;;;10.16;83.54
46506;BME280;32220;49.808;9.968;2023-04-21T01:56:01;98562.31;;;10.11;83.20
46506;BME280;32220;49.808;9.968;2023-04-21T01:58:31;98557.88;;;10.11;82.85
46506;BME280;32220;49.808;9.968;2023-04-21T02:00:59;98573.16;;;10.20;82.88
46506;BME280;32220;49.808;9.968;2023-04-21T02:03:26;98580.91;;;10.23;82.65
46506;BME280;32220;49.808;9.968;2023-04-21T02:05:54;98569.38;;;10.24;82.79
46506;BME280;32220;49.808;9.968;2023-04-21T02:08:22;98559.34;;;10.15;82.51
46506;BME280;32220;49.808;9.968;2023-04-21T02:10:50;98569.38;;;10.24;82.74
46506;BME280;32220;49.808;9.968;2023-04-21T02:13:17;98565.97;;;10.22;82.69
46506;BME280;32220;49.808;9.968;2023-04-21T02:15:46;98568.72;;;10.21;82.80
46506;BME280;32220;49.808;9.968;2023-04-21T02:18:14;98566.94;;;10.21;82.40
46506;BME280;32220;49.808;9.968;2023-04-21T02:20:43;98563.44;;;10.21;82.47
46506;BME280;32220;49.808;9.968;2023-04-21T02:23:13;98565.22;;;10.20;82.38
46506;BME280;32220;49.808;9.968;2023-04-21T02:25:41;98569.75;;;10.18;82.18
46506;BME280;32220;49.808;9.968;2023-04-21T02:28:08;98583.56;;;10.23;82.12
46506;BME280;32220;49.808;9.968;2023-04-21T02:30:36;98574.78;;;10.23;81.96
46506;BME280;32220;49.808;9.968;2023-04-21T02:33:05;98567.88;;;10.20;82.17
46506;BME280;32220;49.808;9.968;2023-04-21T02:35:33;98578.03;;;10.26;82.08
46506;BME280;32220;49.808;9.968;2023-04-21T02:38:00;98566.16;;;10.19;82.04
46506;BME280;32220;49.808;9.968;2023-04-21T02:40:32;98569.91;;;10.29;82.02
46506;BME280;32220;49.808;9.968;2023-04-21T02:43:00;98568.97;;;10.30;82.25
46506;BME280;32220;49.808;9.968;2023-04-21T02:45:28;98566.63;;;10.26;81.81
46506;BME280;32220;49.808;9.968;2023-04-21T02:47:56;98569.81;;;10.31;81.85
46506;BME280;32220;49.808;9.968;2023-04-21T02:50:25;98571.41;;;10.33;81.82
46506;BME280;32220;49.808;9.968;2023-04-21T02:52:53;98570.47;;;10.34;81.61
46506;BME280;32220;49.808;9.968;2023-04-21T02:55:22;98573.00;;;10.36;81.49
46506;BME280;32220;49.808;9.968;2023-04-21T02:57:50;98575.56;;;10.37;81.22
46506;BME280;32220;49.808;9.968;2023-04-21T03:00:18;98560.06;;;10.31;81.23
46506;BME280;32220;49.808;9.968;2023-04-21T03:02:46;98573.75;;;10.38;81.48
46506;BME280;32220;49.808;9.968;2023-04-21T03:05:15;98521.69;;;10.12;81.32
46506;BME280;32220;49.808;9.968;2023-04-21T03:07:45;98565.59;;;10.41;81.14
46506;BME280;32220;49.808;9.968;2023-04-21T03:10:13;98571.75;;;10.41;81.19
46506;BME280;32220;49.808;9.968;2023-04-21T03:12:41;98571.75;;;10.41;81.33
46506;BME280;32220;49.808;9.968;2023-04-21T03:15:08;98574.38;;;10.41;81.32
46506;BME280;32220;49.808;9.968;2023-04-21T03:17:37;98568.16;;;10.42;80.88
46506;BME280;32220;49.808;9.968;2023-04-21T03:20:06;98541.00;;;10.26;80.94
46506;BME280;32220;49.808;9.968;2023-04-21T03:22:34;98547.69;;;10.32;81.08
46506;BME280;32220;49.808;9.968;2023-04-21T03:25:04;98558.41;;;10.43;81.01
46506;BME280;32220;49.808;9.968;2023-04-21T03:27:32;98562.84;;;10.42;81.17
46506;BME280;32220;49.808;9.968;2023-04-21T03:30:00;98562.84;;;10.42;81.24
46506;BME280;32220;49.808;9.968;2023-04-21T03:32:28;98563.59;;;10.44;80.97
46506;BME280;32220;49.808;9.968;2023-04-21T03:34:56;98567.00;;;10.47;81.18
46506;BME280;32220;49.808;9.968;2023-04-21T03:37:24;98556.09;;;10.38;81.36
46506;BME280;32220;49.808;9.968;2023-04-21T03:39:51;98561.72;;;10.47;80.93
46506;BME280;32220;49.808;9.968;2023-04-21T03:42:21;98561.72;;;10.47;81.42
46506;BME280;32220;49.808;9.968;2023-04-21T03:44:52;98537.00;;;10.33;81.58
46506;BME280;32220;49.808;9.968;2023-04-21T03:47:19;98559.06;;;10.47;81.40
46506;BME280;32220;49.808;9.968;2023-04-21T03:49:47;98554.63;;;10.47;81.87
46506;BME280;32220;49.808;9.968;2023-04-21T03:52:15;98538.94;;;10.44;83.03
46506;BME280;32220;49.808;9.968;2023-04-21T03:54:42;98540.41;;;10.35;82.53
46506;BME280;32220;49.808;9.968;2023-04-21T03:57:10;98547.41;;;10.36;82.68
46506;BME280;32220;49.808;9.968;2023-04-21T03:59:40;98547.16;;;10.39;82.83
46506;BME280;32220;49.808;9.968;2023-04-21T04:02:08;98555.84;;;10.41;82.42
46506;BME280;32220;49.808;9.968;2023-04-21T04:04:36;98562.84;;;10.42;82.39
46506;BME280;32220;49.808;9.968;2023-04-21T04:07:03;98560.97;;;10.44;82.16
46506;BME280;32220;49.808;9.968;2023-04-21T04:09:32;98565.09;;;10.49;81.88
46506;BME280;32220;49.808;9.968;2023-04-21T04:12:00;98558.88;;;10.50;81.85
46506;BME280;32220;49.808;9.968;2023-04-21T04:14:28;98554.28;;;10.52;81.88
46506;BME280;32220;49.808;9.968;2023-04-21T04:16:57;98536.84;;;10.49;81.84
46506;BME280;32220;49.808;9.968;2023-04-21T04:19:29;98498.22;;;10.20;82.11
46506;BME280;32220;49.808;9.968;2023-04-21T04:21:57;98538.69;;;10.34;82.03
46506;BME280;32220;49.808;9.968;2023-04-21T04:24:25;98539.34;;;10.38;82.17
46506;BME280;32220;49.808;9.968;2023-04-21T04:26:53;98530.66;;;10.36;82.22
46506;BME280;32220;49.808;9.968;2023-04-21T04:29:22;98537.00;;;10.33;81.90
46506;BME280;32220;49.808;9.968;2023-04-21T04:31:50;98535.31;;;10.32;82.29
46506;BME280;32220;49.808;9.968;2023-04-21T04:34:20;98537.00;;;10.33;82.66
46506;BME280;32220;49.808;9.968;2023-04-21T04:36:48;98543.06;;;10.35;82.48
46506;BME280;32220;49.808;9.968;2023-04-21T04:39:16;98531.50;;;10.36;82.63
46506;BME280;32220;49.808;9.968;2023-04-21T04:41:44;98523.25;;;10.41;82.69
46506;BME280;32220;49.808;9.968;2023-04-21T04:44:12;98514.78;;;10.36;83.09
46506;BME280;32220;49.808;9.968;2023-04-21T04:46:41;98526.34;;;10.48;82.71
46506;BME280;32220;49.808;9.968;2023-04-21T04:49:10;98532.16;;;10.53;82.71
46506;BME280;32220;49.808;9.968;2023-04-21T04:51:39;98536.00;;;10.61;82.76
46506;BME280;32220;49.808;9.968;2023-04-21T04:54:06;98540.66;;;10.70;82.47
46506;BME280;32220;49.808;9.968;2023-04-21T04:56:34;98527.22;;;10.73;82.20
46506;BME280;32220;49.808;9.968;2023-04-21T04:59:02;98516.28;;;10.78;81.73
46506;BME280;32220;49.808;9.968;2023-04-21T05:01:30;98532.84;;;10.94;81.34
46506;BME280;32220;49.808;9.968;2023-04-21T05:03:57;98534.09;;;11.01;81.15
46506;BME280;32220;49.808;9.968;2023-04-21T05:06:25;98536.34;;;11.07;81.25
46506;BME280;32220;49.808;9.968;2023-04-21T05:08:55;98541.31;;;11.25;80.74
46506;BME280;32220;49.808;9.968;2023-04-21T05:11:22;98547.41;;;11.38;80.43
46506;BME280;32220;49.808;9.968;2023-04-21T05:13:50;98542.94;;;11.51;80.59
46506;BME280;32220;49.808;9.968;2023-04-21T05:16:18;98531.06;;;11.57;80.45
46506;BME280;32220;49.808;9.968;2023-04-21T05:18:45;98541.31;;;11.74;79.89
46506;BME280;32220;49.808;9.968;2023-04-21T05:21:21;98546.72;;;11.85;79.98
46506;BME280;32220;49.808;9.968;2023-04-21T05:23:49;98539.06;;;11.93;79.62
46506;BME280;32220;49.808;9.968;2023-04-21T05:26:18;98537.53;;;12.02;79.49
46506;BME280;32220;49.808;9.968;2023-04-21T05:28:46;98534.31;;;12.09;79.60
46506;BME280;32220;49.808;9.968;2023-04-21T05:31:14;98527.69;;;12.15;79.60
46506;BME280;32220;49.808;9.968;2023-04-21T05:33:42;98517.94;;;12.15;79.23
46506;BME280;32220;49.808;9.968;2023-04-21T05:36:10;98526.19;;;12.23;79.27
46506;BME280;32220;49.808;9.968;2023-04-21T05:38:38;98525.94;;;12.27;78.91
46506;BME280;32220;49.808;9.968;2023-04-21T05:41:06;98551.03;;;12.22;78.08
46506;BME280;32220;49.808;9.968;2023-04-21T05:43:35;98562.56;;;12.10;78.38
46506;BME280;32220;49.808;9.968;2023-04-21T05:46:08;98577.97;;;12.05;78.66
46506;BME280;32220;49.808;9.968;2023-04-21T05:48:36;98583.38;;;12.04;78.94
46506;BME280;32220;49.808;9.968;2023-04-21T05:51:07;98583.38;;;12.04;78.73
46506;BME280;32220;49.808;9.968;2023-04-21T05:53:35;98592.09;;;12.06;78.77
46506;BME280;32220;49.808;9.968;2023-04-21T05:56:04;98587.91;;;12.14;78.77
46506;BME280;32220;49.808;9.968;2023-04-21T05:58:32;98571.69;;;12.06;78.51
46506;BME280;32220;49.808;9.968;2023-04-21T06:01:02;98596.03;;;12.24;78.46
46506;BME280;32220;49.808;9.968;2023-04-21T06:03:31;98584.91;;;12.19;78.74
46506;BME280;32220;49.808;9.968;2023-04-21T06:05:59;98593.91;;;12.29;78.73
46506;BME280;32220;49.808;9.968;2023-04-21T06:08:27;98592.50;;;12.36;78.17
46506;BME280;32220;49.808;9.968;2023-04-21T06:10:56;98589.38;;;12.42;78.28
46506;BME280;32220;49.808;9.968;2023-04-21T06:13:23;98595.06;;;12.49;78.13
46506;BME280;32220;49.808;9.968;2023-04-21T06:15:52;98594.09;;;12.50;78.02
46506;BME280;32220;49.808;9.968;2023-04-21T06:18:22;98587.94;;;12.49;77.90
46506;BME280;32220;49.808;9.968;2023-04-21T06:20:50;98566.44;;;12.41;77.69
46506;BME280;32220;49.808;9.968;2023-04-21T06:23:19;98580.59;;;12.53;77.48
46506;BME280;32220;49.808;9.968;2023-04-21T06:25:46;98588.13;;;12.59;77.20
46506;BME280;32220;49.808;9.968;2023-04-21T06:28:14;98591.28;;;12.64;77.23
46506;BME280;32220;49.808;9.968;2023-04-21T06:30:42;98579.34;;;12.70;76.79
46506;BME280;32220;49.808;9.968;2023-04-21T06:33:11;98582.78;;;12.83;77.17
46506;BME280;32220;49.808;9.968;2023-04-21T06:35:40;98564.66;;;12.88;76.89
46506;BME280;32220;49.808;9.968;2023-04-21T06:38:07;98578.72;;;13.12;76.73
46506;BME280;32220;49.808;9.968;2023-04-21T06:40:35;98575.88;;;13.26;76.45
46506;BME280;32220;49.808;9.968;2023-04-21T06:43:02;98572.97;;;13.41;75.80
46506;BME280;32220;49.808;9.968;2023-04-21T06:45:30;98569.47;;;13.51;74.66
46506;BME280;32220;49.808;9.968;2023-04-21T06:47:57;98568.13;;;13.68;74.68
46506;BME280;32220;49.808;9.968;2023-04-21T06:50:25;98564.25;;;13.83;74.46
46506;BME280;32220;49.808;9.968;2023-04-21T06:52:54;98570.03;;;13.99;73.99
46506;BME280;32220;49.808;9.968;2023-04-21T06:55:22;98574.09;;;14.15;74.18
46506;BME280;32220;49.808;9.968;2023-04-21T06:57:50;98560.75;;;14.26;73.69
46506;BME280;32220;49.808;9.968;2023-04-21T07:00:18;98563.47;;;14.47;73.31
46506;BME280;32220;49.808;9.968;2023-04-21T07:02:46;98553.84;;;14.66;72.64
46506;BME280;32220;49.808;9.968;2023-04-21T07:05:13;98541.34;;;14.88;71.96
46506;BME280;32220;49.808;9.968;2023-04-21T07:07:41;98569.69;;;15.30;71.26
46506;BME280;32220;49.808;9.968;2023-04-21T07:10:11;98574.34;;;15.59;69.49
46506;BME280;32220;49.808;9.968;2023-04-21T07:12:44;98576.66;;;15.73;66.32
46506;BME280;32220;49.808;9.968;2023-04-21T07:15:11;98567.69;;;15.84;67.19
46506;BME280;32220;49.808;9.968;2023-04-21T07:17:39;98550.56;;;15.86;67.80
46506;BME280;32220;49.808;9.968;2023-04-21T07:20:08;98561.00;;;16.08;67.12
46506;BME280;32220;49.808;9.968;2023-04-21T07:22:35;98578.78;;;16.29;66.68
46506;BME280;32220;49.808;9.968;2023-04-21T07:25:04;98576.38;;;16.45;64.76
46506;BME280;32220;49.808;9.968;2023-04-21T07:27:34;98567.69;;;16.52;65.21
46506;BME280;32220;49.808;9.968;2023-04-21T07:30:02;98579.91;;;16.45;63.21
46506;BME280;32220;49.808;9.968;2023-04-21T07:32:30;98579.34;;;16.42;63.98
46506;BME280;32220;49.808;9.968;2023-04-21T07:34:58;98579.91;;;16.36;63.32
46506;BME280;32220;49.808;9.968;2023-04-21T07:37:26;98579.38;;;16.90;62.26
46506;BME280;32220;49.808;9.968;2023-04-21T07:39:54;98582.34;;;17.53;62.21
46506;BME280;32220;49.808;9.968;2023-04-21T07:42:22;98590.28;;;18.09;61.17
46506;BME280;32220;49.808;9.968;2023-04-21T07:44:53;98609.72;;;18.66;59.41
46506;BME280;32220;49.808;9.968;2023-04-21T07:47:22;98615.22;;;19.69;56.13
46506;BME280;32220;49.808;9.968;2023-04-21T07:49:50;98620.03;;;20.76;54.62
46506;BME280;32220;49.808;9.968;2023-04-21T07:52:17;98635.56;;;21.23;51.42
46506;BME280;32220;49.808;9.968;2023-04-21T07:54:45;98640.94;;;21.39;50.41
46506;BME280;32220;49.808;9.968;2023-04-21T07:57:13;98645.66;;;21.29;50.00
46506;BME280;32220;49.808;9.968;2023-04-21T07:59:41;98638.06;;;21.08;49.58
46506;BME280;32220;49.808;9.968;2023-04-21T08:02:10;98654.69;;;21.84;47.60
46506;BME280;32220;49.808;9.968;2023-04-21T08:04:38;98634.44;;;22.44;49.13
46506;BME280;32220;49.808;9.968;2023-04-21T08:07:05;98658.22;;;22.48;46.90
46506;BME280;32220;49.808;9.968;2023-04-21T08:09:34;98655.31;;;23.35;45.71
46506;BME280;32220;49.808;9.968;2023-04-21T08:12:02;98650.97;;;23.03;45.74
46506;BME280;32220;49.808;9.968;2023-04-21T08:14:30;98652.53;;;22.66;45.80
46506;BME280;32220;49.808;9.968;2023-04-21T08:16:58;98651.53;;;22.36;45.88
46506;BME280;32220;49.808;9.968;2023-04-21T08:19:28;98646.56;;;21.93;46.15
46506;BME280;32220;49.808;9.968;2023-04-21T08:21:55;98646.25;;;21.96;46.88
46506;BME280;32220;49.808;9.968;2023-04-21T08:24:23;98650.75;;;22.50;44.85
46506;BME280;32220;49.808;9.968;2023-04-21T08:26:51;98646.00;;;22.61;45.34
46506;BME280;32220;49.808;9.968;2023-04-21T08:29:19;98638.88;;;22.99;45.24
46506;BME280;32220;49.808;9.968;2023-04-21T08:31:46;98655.50;;;23.10;43.16
46506;BME280;32220;49.808;9.968;2023-04-21T08:34:14;98648.97;;;23.42;43.92
46506;BME280;32220;49.808;9.968;2023-04-21T08:36:43;98640.13;;;24.00;43.08
46506;BME280;32220;49.808;9.968;2023-04-21T08:39:13;98647.63;;;24.28;41.78
46506;BME280;32220;49.808;9.968;2023-04-21T08:41:41;98637.84;;;25.63;42.23
46506;BME280;32220;49.808;9.968;2023-04-21T08:44:09;98679.03;;;26.01;38.03
46506;BME280;32220;49.808;9.968;2023-04-21T08:46:38;98663.50;;;26.64;38.24
46506;BME280;32220;49.808;9.968;2023-04-21T08:49:08;98658.13;;;26.83;38.73
46506;BME280;32220;49.808;9.968;2023-04-21T08:51:36;98686.53;;;27.42;36.27
46506;BME280;32220;49.808;9.968;2023-04-21T08:54:06;98680.91;;;26.28;35.99
46506;BME280;32220;49.808;9.968;2023-04-21T08:56:34;98669.22;;;25.51;37.19
46506;BME280;32220;49.808;9.968;2023-04-21T08:59:02;98655.28;;;25.11;38.63
46506;BME280;32220;49.808;9.968;2023-04-21T09:01:29;98669.28;;;24.93;37.77
46506;BME280;32220;49.808;9.968;2023-04-21T09:04:14;98677.97;;;25.74;36.25
46506;BME280;32220;49.808;9.968;2023-04-21T09:06:42;98674.56;;;27.23;36.30
46506;BME280;32220;49.808;9.968;2023-04-21T09:09:12;98663.50;;;28.17;34.89
46506;BME280;32220;49.808;9.968;2023-04-21T09:11:40;98691.78;;;27.43;33.83
46506;BME280;32220;49.808;9.968;2023-04-21T09:14:09;98680.59;;;26.51;35.07
46506;BME280;32220;49.808;9.968;2023-04-21T09:16:37;98679.41;;;25.49;35.67
46506;BME280;32220;49.808;9.968;2023-04-21T09:19:12;98668.06;;;24.96;37.24
46506;BME280;32220;49.808;9.968;2023-04-21T09:21:42;98651.13;;;24.58;38.83
46506;BME280;32220;49.808;9.968;2023-04-21T09:24:12;98647.16;;;24.24;39.79
46506;BME280;32220;49.808;9.968;2023-04-21T09:26:41;98638.38;;;23.93;40.50
46506;BME280;32220;49.808;9.968;2023-04-21T09:29:09;98634.88;;;23.55;39.98
46506;BME280;32220;49.808;9.968;2023-04-21T09:31:36;98629.81;;;23.52;41.75
46506;BME280;32220;49.808;9.968;2023-04-21T09:34:16;98634.34;;;23.37;40.68
46506;BME280;32220;49.808;9.968;2023-04-21T09:36:44;98633.03;;;23.33;41.09
46506;BME280;32220;49.808;9.968;2023-04-21T09:39:14;98607.03;;;23.32;41.44
46506;BME280;32220;49.808;9.968;2023-04-21T09:41:42;98633.03;;;23.33;41.10
46506;BME280;32220;49.808;9.968;2023-04-21T09:44:10;98639.91;;;22.98;41.36
46506;BME280;32220;49.808;9.968;2023-04-21T09:46:41;98635.13;;;22.77;41.94
46506;BME280;32220;49.808;9.968;2023-04-21T09:49:10;98619.09;;;22.44;41.59
46506;BME280;32220;49.808;9.968;2023-04-21T09:51:41;98625.00;;;22.48;42.60
46506;BME280;32220;49.808;9.968;2023-04-21T09:54:15;98605.94;;;22.72;42.08
46506;BME280;32220;49.808;9.968;2023-04-21T09:56:48;98599.03;;;23.15;42.39
46506;BME280;32220;49.808;9.968;2023-04-21T09:59:18;98631.06;;;23.64;39.79
46506;BME280;32220;49.808;9.968;2023-04-21T10:01:48;98625.50;;;23.80;39.17
46506;BME280;32220;49.808;9.968;2023-04-21T10:04:16;98637.78;;;24.12;38.14
46506;BME280;32220;49.808;9.968;2023-04-21T10:06:46;98633.41;;;24.55;38.32
46506;BME280;32220;49.808;9.968;2023-04-21T10:09:17;98639.03;;;24.75;37.40
46506;BME280;32220;49.808;9.968;2023-04-21T10:11:47;98635.53;;;24.60;37.09
46506;BME280;32220;49.808;9.968;2023-04-21T10:14:15;98627.81;;;24.13;37.04
46506;BME280;32220;49.808;9.968;2023-04-21T10:16:43;98621.38;;;23.99;37.45
46506;BME280;32220;49.808;9.968;2023-04-21T10:19:22;98623.56;;;24.33;38.37
46506;BME280;32220;49.808;9.968;2023-04-21T10:21:51;98630.41;;;24.50;36.96
46506;BME280;32220;49.808;9.968;2023-04-21T10:24:27;98634.53;;;24.97;36.73
46506;BME280;32220;49.808;9.968;2023-04-21T10:26:56;98627.53;;;25.30;36.32
46506;BME280;32220;49.808;9.968;2023-04-21T10:29:31;98624.28;;;25.97;35.96
46506;BME280;32220;49.808;9.968;2023-04-21T10:32:00;98652.91;;;27.69;33.71
46506;BME280;32220;49.808;9.968;2023-04-21T10:34:34;98655.72;;;28.34;31.94
46506;BME280;32220;49.808;9.968;2023-04-21T10:37:15;98652.81;;;29.18;31.51
46506;BME280;32220;49.808;9.968;2023-04-21T10:39:51;98622.44;;;28.76;31.31
46506;BME280;32220;49.808;9.968;2023-04-21T10:42:24;98637.47;;;28.92;31.31
46506;BME280;32220;49.808;9.968;2023-04-21T10:44:59;98636.25;;;28.81;31.50
46506;BME280;32220;49.808;9.968;2023-04-21T10:47:35;98622.22;;;28.78;33.42
46506;BME280;32220;49.808;9.968;2023-04-21T10:50:12;98622.91;;;29.36;32.32
46506;BME280;32220;49.808;9.968;2023-04-21T10:52:43;98631.19;;;30.41;30.15
46506;BME280;32220;49.808;9.968;2023-04-21T10:55:13;98645.94;;;31.59;28.01
46506;BME280;32220;49.808;9.968;2023-04-21T10:57:43;98642.63;;;32.51;28.00
46506;BME280;32220;49.808;9.968;2023-04-21T11:00:15;98634.94;;;32.76;27.92
46506;BME280;32220;49.808;9.968;2023-04-21T11:02:43;98626.50;;;32.54;28.42
46506;BME280;32220;49.808;9.968;2023-04-21T11:05:11;98634.91;;;32.12;27.40
46506;BME280;32220;49.808;9.968;2023-04-21T11:07:39;98614.50;;;32.83;28.10
46506;BME280;32220;49.808;9.968;2023-04-21T11:10:08;98627.31;;;33.85;26.12
46506;BME280;32220;49.808;9.968;2023-04-21T11:12:39;98623.13;;;34.59;25.89
46506;BME280;32220;49.808;9.968;2023-04-21T11:15:09;98627.78;;;34.59;25.05
46506;BME280;32220;49.808;9.968;2023-04-21T11:17:38;98626.44;;;33.51;25.53
46506;BME280;32220;49.808;9.968;2023-04-21T11:20:08;98623.69;;;32.02;26.41
46506;BME280;32220;49.808;9.968;2023-04-21T11:22:36;98606.09;;;30.92;27.74
46506;BME280;32220;49.808;9.968;2023-04-21T11:25:05;98605.00;;;30.81;27.81
46506;BME280;32220;49.808;9.968;2023-04-21T11:27:52;98606.81;;;30.57;27.98
46506;BME280;32220;49.808;9.968;2023-04-21T11:30:20;98588.59;;;30.15;29.54
46506;BME280;32220;49.808;9.968;2023-04-21T11:32:52;98596.72;;;30.21;28.23
46506;BME280;32220;49.808;9.968;2023-04-21T11:35:20;98585.63;;;30.53;28.37
46506;BME280;32220;49.808;9.968;2023-04-21T11:37:49;98598.25;;;31.14;27.77
46506;BME280;32220;49.808;9.968;2023-04-21T11:40:17;98574.75;;;31.59;29.70
46506;BME280;32220;49.808;9.968;2023-04-21T11:42:47;98569.94;;;32.36;28.29
46506;BME280;32220;49.808;9.968;2023-04-21T11:45:18;98579.34;;;33.26;26.58
46506;BME280;32220;49.808;9.968;2023-04-21T11:47:46;98591.03;;;34.05;25.29
46506;BME280;32220;49.808;9.968;2023-04-21T11:50:29;98592.94;;;33.21;24.79
46506;BME280;32220;49.808;9.968;2023-04-21T11:52:58;98579.28;;;34.09;25.31
46506;BME280;32220;49.808;9.968;2023-04-21T11:55:28;98572.91;;;35.55;24.41
46506;BME280;32220;49.808;9.968;2023-04-21T11:57:57;98579.78;;;36.31;22.44
46506;BME280;32220;49.808;9.968;2023-04-21T12:00:28;98577.50;;;36.91;22.68
46506;BME280;32220;49.808;9.968;2023-04-21T12:02:57;98569.75;;;38.15;22.18
46506;BME280;32220;49.808;9.968;2023-04-21T12:05:33;98578.69;;;39.15;21.59
46506;BME280;32220;49.808;9.968;2023-04-21T12:08:01;98562.34;;;39.13;20.56
46506;BME280;32220;49.808;9.968;2023-04-21T12:10:29;98585.84;;;37.77;20.66
46506;BME280;32220;49.808;9.968;2023-04-21T12:12:58;98579.22;;;37.58;20.78
46506;BME280;32220;49.808;9.968;2023-04-21T12:15:28;98572.03;;;37.31;19.86
46506;BME280;32220;49.808;9.968;2023-04-21T12:17:56;98545.47;;;35.70;22.00
46506;BME280;32220;49.808;9.968;2023-04-21T12:20:27;98530.81;;;36.12;23.05
46506;BME280;32220;49.808;9.968;2023-04-21T12:22:55;98561.25;;;37.50;20.92
46506;BME280;32220;49.808;9.968;2023-04-21T12:25:23;98559.78;;;38.78;19.83
46506;BME280;32220;49.808;9.968;2023-04-21T12:27:52;98562.38;;;38.64;20.46
46506;BME280;32220;49.808;9.968;2023-04-21T12:30:22;98575.88;;;39.88;19.58
46506;BME280;32220;49.808;9.968;2023-04-21T12:32:49;98568.03;;;40.85;18.20
46506;BME280;32220;49.808;9.968;2023-04-21T12:35:17;98575.41;;;41.14;17.07
46506;BME280;32220;49.808;9.968;2023-04-21T12:37:44;98555.44;;;41.44;18.44
46506;BME280;32220;49.808;9.968;2023-04-21T12:40:12;98556.28;;;41.91;17.78
46506;BME280;32220;49.808;9.968;2023-04-21T12:42:40;98556.84;;;41.60;17.23
46506;BME280;32220;49.808;9.968;2023-04-21T12:45:08;98542.88;;;40.77;18.03
46506;BME280;32220;49.808;9.968;2023-04-21T12:47:37;98541.56;;;40.69;18.02
46506;BME280;32220;49.808;9.968;2023-04-21T12:50:07;98534.97;;;39.70;18.30
46506;BME280;32220;49.808;9.968;2023-04-21T12:52:36;98530.47;;;38.13;17.92
46506;BME280;32220;49.808;9.968;2023-04-21T12:55:04;98531.47;;;38.37;18.32
46506;BME280;32220;49.808;9.968;2023-04-21T12:57:32;98545.56;;;38.95;16.86
46506;BME280;32220;49.808;9.968;2023-04-21T13:00:00;98539.84;;;39.54;17.37
46506;BME280;32220;49.808;9.968;2023-04-21T13:02:29;98538.53;;;40.04;16.96
46506;BME280;32220;49.808;9.968;2023-04-21T13:05:04;98521.63;;;40.67;18.17
46506;BME280;32220;49.808;9.968;2023-04-21T13:07:32;98534.53;;;40.96;16.48
46506;BME280;32220;49.808;9.968;2023-04-21T13:10:00;98532.50;;;41.20;16.69